Wetterdaten: Woche 03.04.23 - 09.04.23 (KW14)
Datum Zeit Temp. A. Feuchte A. Luftdruck Regen Wind Richtung Taupunkt Windchill
03.04.2023 00:00 2,4 C 80 % 1032 hPa 0,0 l/m 0,0 km/h (0 Bft) N -0,6 C 2,4 C
03.04.2023 01:00 1,8 C 82 % 1032 hPa 0,0 l/m 0,8 km/h (0 Bft) N -1,1 C 1,8 C
03.04.2023 02:00 1,3 C 83 % 1032 hPa 0,0 l/m 0,0 km/h (0 Bft) N-NO -1,3 C 1,3 C
03.04.2023 03:00 0,6 C 84 % 1032 hPa 0,0 l/m 2,7 km/h (1 Bft) N -1,8 C 0,0 C
03.04.2023 04:00 0,1 C 85 % 1033 hPa 0,0 l/m 2,9 km/h (1 Bft) N -2,2 C -0,6 C
03.04.2023 05:00 -0,7 C 86 % 1033 hPa 0,0 l/m 0,9 km/h (0 Bft) N-NO -2,7 C -0,7 C
03.04.2023 06:00 -1,2 C 86 % 1033 hPa 0,0 l/m 1,3 km/h (1 Bft) N-NO -3,3 C -1,4 C
03.04.2023 07:00 -1,6 C 87 % 1034 hPa 0,0 l/m 1,9 km/h (1 Bft) N-NO -3,4 C -1,7 C
03.04.2023 08:00 -1,4 C 87 % 1034 hPa 0,0 l/m 0,0 km/h (0 Bft) N-NW -3,3 C -1,4 C
03.04.2023 09:00 -0,4 C 86 % 1035 hPa 0,0 l/m 1,8 km/h (1 Bft) O -2,5 C -1,1 C
03.04.2023 10:00 0,9 C 82 % 1035 hPa 0,0 l/m 4,5 km/h (1 Bft) N -1,7 C -0,8 C
03.04.2023 11:00 1,7 C 75 % 1035 hPa 0,0 l/m 0,9 km/h (0 Bft) N -2,3 C 1,7 C
03.04.2023 12:00 2,9 C 69 % 1035 hPa 0,0 l/m 4,3 km/h (1 Bft) N -2,1 C 1,3 C
03.04.2023 13:00 4,3 C 65 % 1035 hPa 0,0 l/m 1,6 km/h (1 Bft) W-NW -1,8 C 3,8 C
03.04.2023 14:00 4,7 C 61 % 1034 hPa 0,0 l/m 5,1 km/h (1 Bft) N -2,1 C 3,0 C
03.04.2023 15:00 5,1 C 60 % 1034 hPa 0,0 l/m 0,1 km/h (0 Bft) N-NO -2,0 C 5,1 C
03.04.2023 16:00 4,7 C 60 % 1034 hPa 0,0 l/m 3,4 km/h (1 Bft) N-NO -2,5 C 3,6 C
03.04.2023 17:00 4,2 C 61 % 1034 hPa 0,0 l/m 0,0 km/h (0 Bft) O -2,7 C 4,2 C
03.04.2023 18:00 3,2 C 61 % 1034 hPa 0,0 l/m 1,3 km/h (1 Bft) W-SW -3,5 C 3,1 C
03.04.2023 19:00 2,4 C 62 % 1034 hPa 0,0 l/m 1,4 km/h (1 Bft) N -4,0 C 2,2 C
03.04.2023 20:00 1,8 C 64 % 1034 hPa 0,0 l/m 0,0 km/h (0 Bft) O-SO -4,3 C 1,8 C
03.04.2023 21:00 1,6 C 66 % 1034 hPa 0,0 l/m 0,0 km/h (0 Bft) O -4,2 C 1,6 C
03.04.2023 22:00 1,4 C 67 % 1034 hPa 0,0 l/m 0,0 km/h (0 Bft) O-NO -4,1 C 1,4 C
03.04.2023 23:00 1,2 C 68 % 1034 hPa 0,0 l/m 0,0 km/h (0 Bft) O-NO -4,0 C 1,2 C
04.04.2023 00:00 0,6 C 69 % 1033 hPa 0,0 l/m 0,0 km/h (0 Bft) O-NO -4,5 C 0,6 C
04.04.2023 01:00 0,5 C 70 % 1033 hPa 0,0 l/m 0,0 km/h (0 Bft) O-NO -4,4 C 0,5 C
04.04.2023 02:00 0,4 C 72 % 1033 hPa 0,0 l/m 0,0 km/h (0 Bft) O-NO -4,1 C 0,4 C
04.04.2023 03:00 0,4 C 73 % 1033 hPa 0,0 l/m 0,8 km/h (0 Bft) N-NO -3,9 C 0,4 C
04.04.2023 04:00 0,3 C 76 % 1032 hPa 0,0 l/m 0,3 km/h (0 Bft) N-NO -3,5 C 0,3 C
04.04.2023 05:00 -0,2 C 78 % 1032 hPa 0,0 l/m 0,0 km/h (0 Bft) N-NO -3,5 C -0,2 C
04.04.2023 06:00 -0,4 C 81 % 1032 hPa 0,0 l/m 0,7 km/h (0 Bft) N-NO -3,3 C -0,4 C
04.04.2023 07:00 -0,4 C 83 % 1032 hPa 0,0 l/m 0,0 km/h (0 Bft) N -3,0 C -0,4 C
04.04.2023 08:00 0,1 C 83 % 1032 hPa 0,0 l/m 1,3 km/h (1 Bft) N -2,5 C -0,2 C
04.04.2023 09:00 0,9 C 82 % 1032 hPa 0,0 l/m 0,0 km/h (0 Bft) N-NO -1,7 C 0,9 C
04.04.2023 10:00 2,1 C 80 % 1032 hPa 0,0 l/m 5,2 km/h (1 Bft) N -1,1 C 0,5 C
04.04.2023 11:00 3,2 C 73 % 1032 hPa 0,0 l/m 2,2 km/h (1 Bft) N -1,2 C 2,8 C
04.04.2023 12:00 3,7 C 66 % 1032 hPa 0,0 l/m 5,0 km/h (1 Bft) N -2,1 C 1,9 C
04.04.2023 13:00 3,7 C 64 % 1032 hPa 0,0 l/m 0,1 km/h (0 Bft) N -2,4 C 3,7 C
04.04.2023 14:00 4,9 C 61 % 1032 hPa 0,0 l/m 0,0 km/h (0 Bft) N -1,9 C 4,9 C
04.04.2023 15:00 5,4 C 58 % 1031 hPa 0,0 l/m 0,0 km/h (0 Bft) N-NO -2,1 C 5,4 C
04.04.2023 16:00 5,1 C 57 % 1031 hPa 0,0 l/m 3,1 km/h (1 Bft) N -2,7 C 4,3 C
04.04.2023 17:00 4,9 C 57 % 1030 hPa 0,0 l/m 1,6 km/h (1 Bft) N -3,0 C 4,9 C
04.04.2023 18:00 4,6 C 57 % 1030 hPa 0,0 l/m 0,0 km/h (0 Bft) NO -3,2 C 4,6 C
04.04.2023 19:00 3,7 C 59 % 1030 hPa 0,0 l/m 0,0 km/h (0 Bft) O -3,6 C 3,7 C
04.04.2023 20:00 2,1 C 61 % 1030 hPa 0,0 l/m 0,0 km/h (0 Bft) N-NO -4,7 C 2,1 C
04.04.2023 21:00 1,2 C 63 % 1030 hPa 0,0 l/m 0,0 km/h (0 Bft) N-NO -5,2 C 1,2 C
04.04.2023 22:00 -0,6 C 66 % 1030 hPa 0,0 l/m 0,0 km/h (0 Bft) N-NO -6,2 C -0,6 C
04.04.2023 23:00 -1,1 C 69 % 1030 hPa 0,0 l/m 0,0 km/h (0 Bft) N-NO -6,1 C -1,1 C
05.04.2023 00:00 -1,7 C 70 % 1030 hPa 0,0 l/m 0,0 km/h (0 Bft) N-NO -6,4 C -1,7 C
05.04.2023 01:00 -2,1 C 72 % 1029 hPa 0,0 l/m 0,0 km/h (0 Bft) N-NO -6,4 C -2,1 C
05.04.2023 02:00 -2,5 C 74 % 1029 hPa 0,0 l/m 0,0 km/h (0 Bft) N-NO -6,5 C -2,5 C
05.04.2023 03:00 -2,8 C 75 % 1029 hPa 0,0 l/m 0,0 km/h (0 Bft) N-NO -6,5 C -2,8 C
05.04.2023 04:00 -2,8 C 76 % 1028 hPa 0,0 l/m 0,0 km/h (0 Bft) N-NO -6,4 C -2,8 C
05.04.2023 05:00 -2,6 C 78 % 1028 hPa 0,0 l/m 0,0 km/h (0 Bft) SO -6,0 C -2,6 C
05.04.2023 06:00 -2,5 C 79 % 1028 hPa 0,0 l/m 0,0 km/h (0 Bft) SO -5,7 C -2,5 C
05.04.2023 07:00 -2,4 C 80 % 1028 hPa 0,0 l/m 0,0 km/h (0 Bft) SO -5,4 C -2,4 C
05.04.2023 08:00 -1,6 C 80 % 1028 hPa 0,0 l/m 0,0 km/h (0 Bft) SO -4,6 C -1,6 C
05.04.2023 09:00 0,4 C 79 % 1028 hPa 0,0 l/m 0,0 km/h (0 Bft) O-NO -2,8 C 0,4 C
05.04.2023 10:00 2,8 C 77 % 1028 hPa 0,0 l/m 0,0 km/h (0 Bft) O -0,9 C 2,8 C
05.04.2023 11:00 5,0 C 71 % 1028 hPa 0,0 l/m 0,0 km/h (0 Bft) O 0,2 C 5,0 C
05.04.2023 12:00 6,3 C 62 % 1028 hPa 0,0 l/m 0,0 km/h (0 Bft) O-SO -0,5 C 6,3 C
05.04.2023 13:00 6,2 C 57 % 1027 hPa 0,0 l/m 0,0 km/h (0 Bft) N-NO -1,6 C 6,2 C
05.04.2023 14:00 7,8 C 55 % 1027 hPa 0,0 l/m 0,0 km/h (0 Bft) SO -0,7 C 7,8 C
05.04.2023 15:00 9,8 C 50 % 1026 hPa 0,0 l/m 0,0 km/h (0 Bft) N-NO -0,2 C 9,8 C
05.04.2023 16:00 10,4 C 47 % 1026 hPa 0,0 l/m 0,1 km/h (0 Bft) O-SO -0,5 C 10,4 C
05.04.2023 17:00 9,8 C 47 % 1025 hPa 0,0 l/m 1,0 km/h (0 Bft) O-SO -1,1 C 9,8 C
05.04.2023 18:00 7,6 C 49 % 1025 hPa 0,0 l/m 0,0 km/h (0 Bft) O-SO -2,5 C 7,6 C
05.04.2023 19:00 5,8 C 52 % 1025 hPa 0,0 l/m 0,0 km/h (0 Bft) O-SO -3,4 C 5,8 C
05.04.2023 20:00 3,7 C 55 % 1025 hPa 0,0 l/m 0,0 km/h (0 Bft) O-SO -4,6 C 3,7 C
05.04.2023 21:00 3,0 C 58 % 1026 hPa 0,0 l/m 0,0 km/h (0 Bft) O -4,4 C 3,0 C
05.04.2023 22:00 2,7 C 60 % 1026 hPa 0,0 l/m 0,0 km/h (0 Bft) O -4,3 C 2,7 C
05.04.2023 23:00 2,5 C 61 % 1025 hPa 0,0 l/m 0,0 km/h (0 Bft) O -4,2 C 2,5 C
06.04.2023 00:00 2,1 C 62 % 1025 hPa 0,0 l/m 0,0 km/h (0 Bft) O -4,4 C 2,1 C
06.04.2023 01:00 1,9 C 64 % 1025 hPa 0,0 l/m 0,0 km/h (0 Bft) O -4,2 C 1,9 C
06.04.2023 02:00 1,5 C 64 % 1025 hPa 0,0 l/m 0,0 km/h (0 Bft) O -4,5 C 1,5 C
06.04.2023 03:00 0,7 C 66 % 1024 hPa 0,0 l/m 0,0 km/h (0 Bft) O -4,9 C 0,7 C
06.04.2023 04:00 -0,1 C 68 % 1024 hPa 0,0 l/m 0,0 km/h (0 Bft) O -5,3 C -0,1 C
06.04.2023 05:00 -0,5 C 69 % 1024 hPa 0,0 l/m 0,0 km/h (0 Bft) O -5,5 C -0,5 C
06.04.2023 06:00 -0,7 C 70 % 1024 hPa 0,0 l/m 0,0 km/h (0 Bft) O -5,4 C -0,7 C
06.04.2023 07:00 -0,4 C 70 % 1025 hPa 0,0 l/m 0,0 km/h (0 Bft) O -5,1 C -0,4 C
06.04.2023 08:00 0,8 C 70 % 1025 hPa 0,0 l/m 0,0 km/h (0 Bft) O -4,2 C 0,8 C
06.04.2023 09:00 3,1 C 66 % 1025 hPa 0,0 l/m 0,0 km/h (0 Bft) S -2,6 C 3,1 C
06.04.2023 10:00 5,7 C 61 % 1025 hPa 0,0 l/m 0,0 km/h (0 Bft) S-SW -1,2 C 5,7 C
06.04.2023 11:00 8,9 C 53 % 1025 hPa 0,0 l/m 0,0 km/h (0 Bft) W -0,1 C 8,9 C
06.04.2023 12:00 10,6 C 48 % 1024 hPa 0,0 l/m 0,0 km/h (0 Bft) S -0,1 C 10,6 C
06.04.2023 13:00 11,7 C 44 % 1024 hPa 0,0 l/m 0,0 km/h (0 Bft) S-SO -0,2 C 11,7 C
06.04.2023 14:00 12,7 C 42 % 1023 hPa 0,0 l/m 0,1 km/h (0 Bft) S-SO -0,0 C 12,7 C
06.04.2023 15:00 14,0 C 39 % 1023 hPa 0,0 l/m 0,0 km/h (0 Bft) W-SW 0,2 C 14,0 C
06.04.2023 16:00 14,6 C 37 % 1023 hPa 0,0 l/m 0,0 km/h (0 Bft) O-SO 0,2 C 14,6 C
06.04.2023 17:00 14,3 C 37 % 1022 hPa 0,0 l/m 0,0 km/h (0 Bft) O -0,1 C 14,3 C
06.04.2023 18:00 12,3 C 38 % 1022 hPa 0,0 l/m 0,0 km/h (0 Bft) O-SO -1,5 C 12,3 C
06.04.2023 19:00 9,6 C 44 % 1022 hPa 0,0 l/m 0,0 km/h (0 Bft) O-SO -2,0 C 9,6 C
06.04.2023 20:00 7,3 C 49 % 1023 hPa 0,0 l/m 0,0 km/h (0 Bft) O -2,8 C 7,3 C
06.04.2023 21:00 6,1 C 51 % 1023 hPa 0,0 l/m 0,0 km/h (0 Bft) O-NO -3,2 C 6,1 C
06.04.2023 22:00 4,8 C 54 % 1023 hPa 0,0 l/m 0,0 km/h (0 Bft) O-SO -3,6 C 4,8 C
06.04.2023 23:00 4,2 C 58 % 1023 hPa 0,0 l/m 0,0 km/h (0 Bft) O-SO -3,5 C 4,2 C
07.04.2023 00:00 3,5 C 59 % 1023 hPa 0,0 l/m 0,0 km/h (0 Bft) O -3,7 C 3,5 C
07.04.2023 01:00 3,0 C 61 % 1022 hPa 0,0 l/m 0,0 km/h (0 Bft) O-NO -3,9 C 3,0 C
07.04.2023 02:00 2,6 C 62 % 1022 hPa 0,0 l/m 0,0 km/h (0 Bft) O-NO -4,0 C 2,6 C
07.04.2023 03:00 1,7 C 63 % 1022 hPa 0,0 l/m 0,0 km/h (0 Bft) O-NO -4,7 C 1,7 C
07.04.2023 04:00 0,9 C 66 % 1022 hPa 0,0 l/m 0,0 km/h (0 Bft) O-NO -4,7 C 0,9 C
07.04.2023 05:00 0,5 C 68 % 1022 hPa 0,0 l/m 0,0 km/h (0 Bft) SO -4,8 C 0,5 C
07.04.2023 06:00 -0,1 C 69 % 1022 hPa 0,0 l/m 0,0 km/h (0 Bft) SO -5,0 C -0,1 C
07.04.2023 07:00 -0,3 C 71 % 1022 hPa 0,0 l/m 0,0 km/h (0 Bft) O-SO -5,0 C -0,3 C
07.04.2023 08:00 1,1 C 73 % 1022 hPa 0,0 l/m 0,0 km/h (0 Bft) O-SO -3,2 C 1,1 C
07.04.2023 09:00 4,5 C 69 % 1022 hPa 0,0 l/m 0,0 km/h (0 Bft) O-SO -0,7 C 4,5 C
07.04.2023 10:00 7,8 C 62 % 1022 hPa 0,0 l/m 0,0 km/h (0 Bft) SO 0,9 C 7,8 C
07.04.2023 11:00 10,1 C 54 % 1022 hPa 0,0 l/m 0,0 km/h (0 Bft) N-NO 1,2 C 10,1 C
07.04.2023 12:00 11,8 C 49 % 1022 hPa 0,0 l/m 0,0 km/h (0 Bft) S-SO 1,4 C 11,8 C
07.04.2023 13:00 13,0 C 46 % 1022 hPa 0,0 l/m 1,1 km/h (1 Bft) NO 1,7 C 13,0 C
07.04.2023 14:00 13,7 C 45 % 1022 hPa 0,0 l/m 0,1 km/h (0 Bft) N-NO 1,9 C 13,7 C
07.04.2023 15:00 13,5 C 43 % 1022 hPa 0,0 l/m 0,0 km/h (0 Bft) N 1,0 C 13,5 C
07.04.2023 16:00 13,6 C 42 % 1022 hPa 0,0 l/m 2,1 km/h (1 Bft) N-NO 0,9 C 13,6 C
07.04.2023 17:00 12,5 C 43 % 1022 hPa 0,0 l/m 0,5 km/h (0 Bft) N 0,4 C 12,5 C
07.04.2023 18:00 11,0 C 45 % 1022 hPa 0,0 l/m 1,6 km/h (1 Bft) N-NO -0,5 C 10,6 C
07.04.2023 19:00 9,6 C 48 % 1023 hPa 0,0 l/m 0,0 km/h (0 Bft) N -0,8 C 9,6 C
07.04.2023 20:00 8,0 C 53 % 1023 hPa 0,0 l/m 0,1 km/h (0 Bft) N -1,1 C 8,0 C
07.04.2023 21:00 6,8 C 57 % 1024 hPa 0,0 l/m 0,0 km/h (0 Bft) O -1,2 C 6,8 C
07.04.2023 22:00 5,4 C 60 % 1025 hPa 0,0 l/m 0,0 km/h (0 Bft) N-NO -1,7 C 5,4 C
07.04.2023 23:00 5,2 C 62 % 1025 hPa 0,0 l/m 0,0 km/h (0 Bft) N -1,5 C 5,2 C
08.04.2023 00:00 4,8 C 66 % 1025 hPa 0,0 l/m 0,6 km/h (0 Bft) N-NO -1,0 C 4,8 C
08.04.2023 01:00 4,3 C 74 % 1025 hPa 0,0 l/m 0,0 km/h (0 Bft) N 0,2 C 4,3 C
08.04.2023 02:00 3,9 C 79 % 1025 hPa 0,5 l/m 0,0 km/h (0 Bft) N 0,7 C 3,9 C
08.04.2023 03:00 3,9 C 83 % 1025 hPa 0,5 l/m 0,0 km/h (0 Bft) N 1,2 C 3,9 C
08.04.2023 04:00 3,8 C 86 % 1025 hPa 0,0 l/m 0,0 km/h (0 Bft) N 1,6 C 3,8 C
08.04.2023 05:00 3,6 C 87 % 1025 hPa 0,5 l/m 0,8 km/h (0 Bft) N 1,7 C 3,6 C
08.04.2023 06:00 3,5 C 89 % 1025 hPa 0,0 l/m 1,9 km/h (1 Bft) N 1,8 C 3,1 C
08.04.2023 07:00 3,6 C 89 % 1026 hPa 0,0 l/m 1,0 km/h (0 Bft) N 2,0 C 3,6 C
08.04.2023 08:00 3,9 C 90 % 1026 hPa 0,0 l/m 5,0 km/h (1 Bft) N 2,4 C 2,4 C
08.04.2023 09:00 4,0 C 90 % 1027 hPa 0,5 l/m 6,9 km/h (2 Bft) N 2,6 C 2,0 C
08.04.2023 10:00 4,4 C 91 % 1027 hPa 0,0 l/m 4,6 km/h (1 Bft) N 3,0 C 4,0 C
08.04.2023 11:00 4,8 C 91 % 1028 hPa 0,0 l/m 3,0 km/h (1 Bft) N 3,5 C 4,1 C
08.04.2023 12:00 5,4 C 91 % 1028 hPa 0,0 l/m 1,2 km/h (1 Bft) N 4,0 C 5,3 C
08.04.2023 13:00 5,9 C 91 % 1028 hPa 0,0 l/m 0,6 km/h (0 Bft) N 4,6 C 5,9 C
08.04.2023 14:00 6,4 C 90 % 1028 hPa 0,0 l/m 10,3 km/h (2 Bft) N-NO 4,8 C 3,5 C
08.04.2023 15:00 6,9 C 88 % 1028 hPa 0,0 l/m 4,3 km/h (1 Bft) N 5,1 C 6,6 C
08.04.2023 16:00 7,7 C 87 % 1028 hPa 0,0 l/m 0,9 km/h (0 Bft) N 5,6 C 7,7 C
08.04.2023 17:00 7,6 C 84 % 1028 hPa 0,0 l/m 3,3 km/h (1 Bft) N 5,1 C 6,8 C
08.04.2023 18:00 7,5 C 84 % 1029 hPa 0,0 l/m 0,2 km/h (0 Bft) N 5,0 C 7,5 C
08.04.2023 19:00 7,2 C 86 % 1029 hPa 0,0 l/m 0,0 km/h (0 Bft) O 4,9 C 7,2 C
08.04.2023 20:00 6,8 C 86 % 1030 hPa 0,0 l/m 0,0 km/h (0 Bft) O 4,6 C 6,8 C
08.04.2023 21:00 5,8 C 85 % 1030 hPa 0,0 l/m 0,0 km/h (0 Bft) O 3,5 C 5,8 C
08.04.2023 22:00 5,6 C 85 % 1030 hPa 0,0 l/m 0,0 km/h (0 Bft) O 3,2 C 5,6 C
08.04.2023 23:00 5,4 C 85 % 1030 hPa 0,0 l/m 0,0 km/h (0 Bft) O 3,0 C 5,4 C
09.04.2023 00:00 5,3 C 85 % 1030 hPa 0,0 l/m 0,7 km/h (0 Bft) N-NO 3,0 C 5,3 C
09.04.2023 01:00 5,1 C 86 % 1030 hPa 0,0 l/m 0,0 km/h (0 Bft) N 3,0 C 5,1 C
09.04.2023 02:00 4,7 C 86 % 1030 hPa 0,0 l/m 0,0 km/h (0 Bft) N 2,6 C 4,7 C
09.04.2023 03:00 4,4 C 87 % 1030 hPa 0,0 l/m 0,0 km/h (0 Bft) O 2,4 C 4,4 C
09.04.2023 04:00 3,9 C 87 % 1030 hPa 0,0 l/m 0,0 km/h (0 Bft) O 1,9 C 3,9 C
09.04.2023 05:00 2,5 C 86 % 1030 hPa 0,0 l/m 0,0 km/h (0 Bft) O 0,5 C 2,5 C
09.04.2023 06:00 1,6 C 87 % 1030 hPa 0,0 l/m 0,0 km/h (0 Bft) O -0,3 C 1,6 C
09.04.2023 07:00 1,3 C 88 % 1031 hPa 0,0 l/m 0,0 km/h (0 Bft) O-NO -0,6 C 1,3 C
09.04.2023 08:00 1,6 C 88 % 1031 hPa 0,0 l/m 0,0 km/h (0 Bft) O-NO -0,1 C 1,6 C
09.04.2023 09:00 3,6 C 89 % 1031 hPa 0,0 l/m 0,0 km/h (0 Bft) O-NO 2,0 C 3,6 C
09.04.2023 10:00 5,6 C 89 % 1031 hPa 0,0 l/m 0,0 km/h (0 Bft) O-NO 4,0 C 5,6 C
09.04.2023 11:00 8,9 C 85 % 1031 hPa 0,0 l/m 0,0 km/h (0 Bft) N-NO 6,5 C 8,9 C
09.04.2023 12:00 11,2 C 78 % 1031 hPa 0,0 l/m 0,0 km/h (0 Bft) O-SO 7,4 C 11,2 C
09.04.2023 13:00 13,1 C 70 % 1031 hPa 0,0 l/m 0,0 km/h (0 Bft) W-NW 7,6 C 13,1 C
09.04.2023 14:00 14,7 C 62 % 1030 hPa 0,0 l/m 0,0 km/h (0 Bft) O-SO 7,6 C 14,7 C
09.04.2023 15:00 15,6 C 56 % 1030 hPa 0,0 l/m 0,0 km/h (0 Bft) N-NO 6,7 C 15,6 C
09.04.2023 16:00 15,4 C 55 % 1030 hPa 0,0 l/m 1,0 km/h (0 Bft) N-NO 6,3 C 15,4 C
09.04.2023 17:00 15,0 C 54 % 1029 hPa 0,0 l/m 0,0 km/h (0 Bft) O-SO 5,8 C 15,0 C
09.04.2023 18:00 13,3 C 57 % 1029 hPa 0,0 l/m 0,0 km/h (0 Bft) O-NO 4,9 C 13,3 C
09.04.2023 19:00 11,5 C 60 % 1030 hPa 0,0 l/m 0,0 km/h (0 Bft) N 4,0 C 11,5 C
09.04.2023 20:00 9,4 C 64 % 1030 hPa 0,0 l/m 0,0 km/h (0 Bft) O-NO 2,9 C 9,4 C
09.04.2023 21:00 8,2 C 67 % 1030 hPa 0,0 l/m 0,0 km/h (0 Bft) O 2,3 C 8,2 C
09.04.2023 22:00 7,2 C 69 % 1030 hPa 0,0 l/m 0,0 km/h (0 Bft) O 1,8 C 7,2 C
09.04.2023 23:00 6,4 C 71 % 1030 hPa 0,0 l/m 0,0 km/h (0 Bft) O 1,6 C 6,4 C
Min-Datum _ 05.04.23 06.04.23 07.04.23 - 09.04.23 - 05.04.23 03.04.23
_ Min-Zeit 04:02 18:02 18:02 - 23:02 - 03:42 10:52
Minimum _ -2,9 C 37 % 1022 hPa - 0,0 km/h (0 Bft) - -6,7 C -6,6 C
Max-Datum _ 09.04.23 08.04.23 03.04.23 08.04.23 03.04.23 - 09.04.23 09.04.23
_ Max-Zeit 15:12 13:02 13:02 09:52 14:22 - 14:22 15:12
Maximum _ 15,9 C 91 % 1035 hPa 0,5 l/m 25,6 km/h
N (4 Bft)
- 8,1 C 15,9 C
Durchschnitt _ 4,6 C 69 % 1028 hPa #2,1 l/m 0,6 km/h (0 Bft) N -1,0 C 4,4 C